createdAt,value
2019-02-16T00:01:07.257Z,9.70
2019-02-16T00:03:38.061Z,8.90
2019-02-16T00:06:08.863Z,9.30
2019-02-16T00:08:39.685Z,8.07
2019-02-16T00:11:10.518Z,8.57
2019-02-16T00:13:41.374Z,8.40
2019-02-16T00:16:12.227Z,8.67
2019-02-16T00:18:43.029Z,8.97
2019-02-16T00:21:13.710Z,9.17
2019-02-16T00:23:44.385Z,9.87
2019-02-16T00:26:15.105Z,9.13
2019-02-16T00:28:45.833Z,9.43
2019-02-16T00:31:16.527Z,9.30
2019-02-16T00:33:47.201Z,9.83
2019-02-16T00:36:17.953Z,10.60
2019-02-16T00:38:48.639Z,7.93
2019-02-16T00:41:19.348Z,6.90
2019-02-16T00:43:50.078Z,8.37
2019-02-16T00:46:20.751Z,8.33
2019-02-16T00:48:51.452Z,8.57
2019-02-16T00:51:22.129Z,7.87
2019-02-16T00:53:52.804Z,9.00
2019-02-16T00:56:23.580Z,8.43
2019-02-16T00:58:54.284Z,9.70
2019-02-16T01:01:24.966Z,8.30
2019-02-16T01:03:55.644Z,8.17
2019-02-16T01:06:26.333Z,8.07
2019-02-16T01:08:57.005Z,8.63
2019-02-16T01:11:27.716Z,8.67
2019-02-16T01:13:58.401Z,9.43
2019-02-16T01:16:29.109Z,10.70
2019-02-16T01:18:59.823Z,9.63
2019-02-16T01:21:30.520Z,7.50
2019-02-16T01:24:01.209Z,8.17
2019-02-16T01:26:31.969Z,7.60
2019-02-16T01:29:02.668Z,9.70
2019-02-16T01:31:33.360Z,8.43
2019-02-16T01:34:04.093Z,8.70
2019-02-16T01:36:35.884Z,7.93
2019-02-16T01:39:07.053Z,8.20
2019-02-16T01:41:37.765Z,8.23
2019-02-16T01:44:08.460Z,9.37
2019-02-16T01:46:39.181Z,7.57
2019-02-16T01:49:09.932Z,8.93
2019-02-16T01:51:40.641Z,8.20
2019-02-16T01:54:15.945Z,11.57
2019-02-16T01:56:46.653Z,9.97
2019-02-16T01:59:17.356Z,10.00
2019-02-16T03:01:04.437Z,5.97
2019-02-16T03:03:35.580Z,6.73
2019-02-16T03:06:06.270Z,7.60
2019-02-16T03:08:37.055Z,7.93
2019-02-16T03:11:09.989Z,9.63
2019-02-16T03:13:40.910Z,7.20
2019-02-16T03:16:14.687Z,7.13
2019-02-16T03:18:47.178Z,7.10
2019-02-16T03:21:18.788Z,6.50
2019-02-16T03:23:49.522Z,7.43
2019-02-16T03:26:46.649Z,6.43
2019-02-16T03:29:26.645Z,7.73
2019-02-16T03:32:23.331Z,5.83
2019-02-16T03:35:30.130Z,8.60
2019-02-16T03:38:34.311Z,8.10
2019-02-16T03:41:05.109Z,10.03
2019-02-16T03:43:35.801Z,7.87
2019-02-16T03:46:06.512Z,7.87
2019-02-16T03:48:37.226Z,9.97
2019-02-16T03:51:07.936Z,7.30
2019-02-16T03:53:38.652Z,7.70
2019-02-16T03:56:09.372Z,6.87
2019-02-16T03:58:40.093Z,7.97
2019-02-16T04:01:11.085Z,7.23
2019-02-16T04:03:41.795Z,7.43
2019-02-16T04:06:12.576Z,5.87
2019-02-16T04:08:43.313Z,6.73
2019-02-16T04:11:14.034Z,6.87
2019-02-16T04:13:44.725Z,7.40
2019-02-16T04:16:15.507Z,7.20
2019-02-16T04:18:46.206Z,7.97
2019-02-16T04:21:16.893Z,7.03
2019-02-16T04:23:47.701Z,7.83
2019-02-16T04:26:18.529Z,7.43
2019-02-16T04:28:50.502Z,7.93
2019-02-16T04:31:21.626Z,7.10
2019-02-16T04:33:52.352Z,7.90
2019-02-16T04:36:23.046Z,6.57
2019-02-16T04:38:54.674Z,7.00
2019-02-16T04:41:25.350Z,7.97
2019-02-16T04:43:56.060Z,5.80
2019-02-16T04:46:26.815Z,7.13
2019-02-16T04:48:57.491Z,7.13
2019-02-16T04:51:28.180Z,7.33
2019-02-16T04:54:02.885Z,7.07
2019-02-16T04:56:35.029Z,6.53
2019-02-16T04:59:09.734Z,6.03
2019-02-16T05:01:40.758Z,6.27
2019-02-16T05:04:11.455Z,6.53
2019-02-16T05:06:42.142Z,7.90
2019-02-16T05:09:12.832Z,6.47
2019-02-16T05:11:43.505Z,7.43
2019-02-16T05:14:14.742Z,5.47
2019-02-16T05:16:45.425Z,6.80
2019-02-16T05:19:16.192Z,7.23
2019-02-16T05:21:47.103Z,6.60
2019-02-16T05:24:17.801Z,6.77
2019-02-16T05:26:48.506Z,6.40
2019-02-16T05:29:19.281Z,6.93
2019-02-16T05:31:50.970Z,6.20
2019-02-16T05:34:21.727Z,7.07
2019-02-16T05:36:52.418Z,6.20
2019-02-16T05:39:27.930Z,6.87
2019-02-16T05:41:59.765Z,5.60
2019-02-16T05:44:30.517Z,5.73
2019-02-16T05:47:01.546Z,5.97
2019-02-16T05:49:32.244Z,7.80
2019-02-16T05:52:02.930Z,7.00
2019-02-16T05:54:33.610Z,6.13
2019-02-16T05:57:04.541Z,6.07
2019-02-16T05:59:35.510Z,5.97
2019-02-16T06:02:06.262Z,5.97
2019-02-16T06:04:36.933Z,6.57
2019-02-16T06:07:07.624Z,6.83
2019-02-16T06:09:38.335Z,7.23
2019-02-16T06:12:09.105Z,6.97
2019-02-16T06:14:39.820Z,7.00
2019-02-16T06:17:10.558Z,6.70
2019-02-16T06:19:41.332Z,6.93
2019-02-16T06:22:12.182Z,5.73
2019-02-16T06:24:43.317Z,5.93
2019-02-16T06:27:14.021Z,7.20
2019-02-16T06:29:44.777Z,5.77
2019-02-16T06:32:17.537Z,6.57
2019-02-16T06:34:50.021Z,5.47
2019-02-16T06:37:24.564Z,6.50
2019-02-16T06:39:55.265Z,6.30
2019-02-16T06:42:26.218Z,5.60
2019-02-16T06:44:56.967Z,6.13
2019-02-16T06:47:27.651Z,5.63
2019-02-16T06:49:58.510Z,6.07
2019-02-16T06:52:30.193Z,6.07
2019-02-16T06:55:01.298Z,6.00
2019-02-16T06:57:32.789Z,6.50
2019-02-16T07:00:03.773Z,6.97
2019-02-16T07:02:34.861Z,6.80
2019-02-16T07:05:05.904Z,6.83
2019-02-16T07:07:36.668Z,6.77
2019-02-16T07:10:08.123Z,7.87
2019-02-16T07:12:38.885Z,7.33
2019-02-16T07:15:09.680Z,7.27
2019-02-16T07:17:48.063Z,7.43
2019-02-16T07:20:20.449Z,7.87
2019-02-16T07:22:51.185Z,10.93
2019-02-16T07:25:22.197Z,15.80
2019-02-16T07:27:53.981Z,11.57
2019-02-16T07:30:24.705Z,7.67
2019-02-16T07:32:55.837Z,6.63
2019-02-16T07:35:26.641Z,8.70
2019-02-16T07:37:57.810Z,8.60
2019-02-16T07:40:28.600Z,10.97
2019-02-16T07:42:59.540Z,11.20
2019-02-16T07:45:55.270Z,8.23
2019-02-16T07:48:36.016Z,8.57
2019-02-16T07:51:21.166Z,8.67
2019-02-16T07:54:10.642Z,8.50
2019-02-16T07:56:58.942Z,8.37
2019-02-16T07:59:48.581Z,11.37
2019-02-16T08:02:32.209Z,10.17
2019-02-16T08:05:37.759Z,11.63
2019-02-16T08:08:19.671Z,9.73
2019-02-16T08:11:09.729Z,11.30
2019-02-16T08:13:54.365Z,11.37
2019-02-16T08:16:52.171Z,11.27
2019-02-16T08:19:51.107Z,12.33
2019-02-16T08:22:39.529Z,11.43
2019-02-16T08:25:41.597Z,11.83
2019-02-16T08:28:17.010Z,8.50
2019-02-16T08:31:09.061Z,9.63
2019-02-16T08:34:01.709Z,11.20
2019-02-16T08:36:57.507Z,10.73
2019-02-16T08:39:36.899Z,10.60
2019-02-16T08:42:32.769Z,10.67
2019-02-16T08:45:10.055Z,13.17
2019-02-16T08:47:59.313Z,10.37
2019-02-16T08:50:38.047Z,8.47
2019-02-16T08:53:27.673Z,7.93
2019-02-16T08:56:16.162Z,8.00
2019-02-16T08:59:04.994Z,8.77
2019-02-16T09:01:53.253Z,6.87
2019-02-16T09:04:41.758Z,9.23
2019-02-16T09:07:24.488Z,9.47
2019-02-16T09:10:03.760Z,11.10
2019-02-16T09:12:57.878Z,8.57
2019-02-16T09:15:42.145Z,7.27
2019-02-16T09:18:44.139Z,13.53
2019-02-16T09:21:39.581Z,17.77
2019-02-16T09:24:47.551Z,8.87
2019-02-16T09:27:33.189Z,7.17
2019-02-16T09:30:13.129Z,6.50
2019-02-16T09:33:02.842Z,10.40
2019-02-16T09:35:42.448Z,11.30
2019-02-16T09:38:29.498Z,7.97
2019-02-16T09:41:25.069Z,9.57
2019-02-16T09:44:13.258Z,10.47
2019-02-16T09:46:52.911Z,8.40
2019-02-16T09:49:35.108Z,9.13
2019-02-16T09:52:27.297Z,7.57
2019-02-16T09:55:22.810Z,10.10
2019-02-16T09:58:12.428Z,9.00
2019-02-16T10:01:02.089Z,7.40
2019-02-16T10:03:51.727Z,9.10
2019-02-16T10:06:40.405Z,10.07
2019-02-16T10:09:34.618Z,10.07
2019-02-16T10:12:22.901Z,7.97
2019-02-16T10:15:11.609Z,9.93
2019-02-16T10:18:10.313Z,7.60
2019-02-16T10:20:48.930Z,6.47
2019-02-16T10:23:48.521Z,7.57
2019-02-16T10:26:37.070Z,6.43
2019-02-16T10:29:26.567Z,7.77
2019-02-16T10:32:16.079Z,6.07
2019-02-16T10:34:55.670Z,5.97
2019-02-16T10:37:43.906Z,7.23
2019-02-16T10:40:33.546Z,7.07
2019-02-16T10:43:23.176Z,8.03
2019-02-16T10:46:11.387Z,8.37
2019-02-16T10:48:50.673Z,8.73
2019-02-16T10:51:34.785Z,22.00
2019-02-16T10:54:28.035Z,13.83
2019-02-16T10:57:28.004Z,13.63
2019-02-16T11:00:09.505Z,8.90
2019-02-16T11:02:59.268Z,8.27
2019-02-16T11:05:50.437Z,9.60
2019-02-16T11:08:36.637Z,11.83
2019-02-16T11:11:18.576Z,13.47
2019-02-16T11:14:07.149Z,17.17
2019-02-16T11:16:59.597Z,12.63
2019-02-16T11:19:39.773Z,20.17
2019-02-16T11:22:28.074Z,11.30
2019-02-16T11:25:10.525Z,10.80
2019-02-16T11:28:01.145Z,10.73
2019-02-16T11:30:44.054Z,7.90
2019-02-16T11:33:36.778Z,9.40
2019-02-16T11:36:16.196Z,9.30
2019-02-16T11:38:52.396Z,8.63
2019-02-16T11:41:45.981Z,8.07
2019-02-16T11:44:44.592Z,8.20
2019-02-16T11:47:34.246Z,7.80
2019-02-16T11:50:26.728Z,8.67
2019-02-16T11:53:15.469Z,9.63
2019-02-16T11:56:07.167Z,9.70
2019-02-16T11:58:58.393Z,10.50
2019-02-16T12:01:51.182Z,10.83
2019-02-16T12:04:30.779Z,10.23
2019-02-16T12:07:35.869Z,10.17
2019-02-16T12:10:13.608Z,10.73
2019-02-16T12:13:15.410Z,10.70
2019-02-16T12:16:04.007Z,10.37
2019-02-16T12:18:52.663Z,12.57
2019-02-16T12:21:42.703Z,12.70
2019-02-16T12:24:28.617Z,12.53
2019-02-16T12:27:18.656Z,11.03
2019-02-16T12:30:05.176Z,11.67
2019-02-16T12:32:56.838Z,11.63
2019-02-16T12:35:34.048Z,11.70
2019-02-16T12:38:17.082Z,13.07
2019-02-16T12:40:54.357Z,12.40
2019-02-16T12:43:56.866Z,12.07
2019-02-16T12:46:55.399Z,13.70
2019-02-16T12:49:45.037Z,21.30
2019-02-16T12:52:29.798Z,14.13
2019-02-16T12:55:19.504Z,13.33
2019-02-16T12:58:05.056Z,11.20
2019-02-16T13:01:03.722Z,12.83
2019-02-16T13:03:52.285Z,13.70
2019-02-16T13:06:40.914Z,13.53
2019-02-16T13:09:20.565Z,12.10
2019-02-16T13:12:07.997Z,12.03
2019-02-16T13:15:10.061Z,12.70
2019-02-16T13:17:57.824Z,12.93
2019-02-16T13:20:46.521Z,12.17
2019-02-16T13:23:28.353Z,12.93
2019-02-16T13:26:16.487Z,18.50
2019-02-16T13:29:06.184Z,14.93
2019-02-16T13:31:57.262Z,12.20
2019-02-16T13:34:49.953Z,13.10
2019-02-16T13:37:46.870Z,12.60
2019-02-16T13:40:27.846Z,12.50
2019-02-16T13:43:29.680Z,11.70
2019-02-16T13:46:27.586Z,12.63
2019-02-16T13:49:11.059Z,13.43
2019-02-16T13:51:47.697Z,13.47
2019-02-16T13:54:31.213Z,12.50
2019-02-16T13:57:13.341Z,14.07
2019-02-16T14:00:06.037Z,20.93
2019-02-16T14:02:55.701Z,23.43
2019-02-16T14:06:00.824Z,41.63
2019-02-16T14:08:53.407Z,17.73
2019-02-16T14:11:52.018Z,25.03
2019-02-16T14:14:52.015Z,26.80
2019-02-16T14:17:47.789Z,19.90
2019-02-16T14:20:18.721Z,15.43
2019-02-16T14:22:49.590Z,18.07
2019-02-16T14:25:45.949Z,14.73
2019-02-16T14:28:17.003Z,10.77
2019-02-16T14:30:48.736Z,12.53
2019-02-16T14:33:19.573Z,12.37
2019-02-16T14:35:50.356Z,12.70
2019-02-16T14:38:32.271Z,12.87
2019-02-16T14:41:03.137Z,11.90
2019-02-16T14:43:34.114Z,16.77
2019-02-16T14:46:04.945Z,11.60
2019-02-16T14:48:35.799Z,11.33
2019-02-16T14:51:06.714Z,10.90
2019-02-16T14:53:37.608Z,9.40
2019-02-16T14:56:08.535Z,11.43
2019-02-16T14:58:39.471Z,9.83
2019-02-16T15:01:10.699Z,9.67
2019-02-16T15:03:41.573Z,9.83
2019-02-16T15:06:12.486Z,11.07
2019-02-16T15:08:43.428Z,9.53
2019-02-16T15:11:14.749Z,11.03
2019-02-16T15:13:45.695Z,10.60
2019-02-16T15:16:16.661Z,10.13
2019-02-16T15:18:48.586Z,10.57
2019-02-16T15:21:23.353Z,9.03
2019-02-16T15:23:54.194Z,9.27
2019-02-16T15:26:28.569Z,9.67
2019-02-16T15:28:57.727Z,8.73
2019-02-16T15:31:28.620Z,9.80
2019-02-16T15:33:59.494Z,8.80
2019-02-16T15:36:30.353Z,7.37
2019-02-16T15:39:01.139Z,8.33
2019-02-16T15:41:33.094Z,8.63
2019-02-16T15:44:03.954Z,9.10
2019-02-16T15:46:34.733Z,8.83
2019-02-16T15:49:05.606Z,8.20
2019-02-16T15:51:36.629Z,9.03
2019-02-16T15:54:07.485Z,9.53
2019-02-16T15:56:38.316Z,10.53
2019-02-16T15:59:09.693Z,11.47
2019-02-16T16:01:40.743Z,13.53
2019-02-16T16:04:12.036Z,11.93
2019-02-16T16:06:42.931Z,9.93
2019-02-16T16:09:31.476Z,9.37
2019-02-16T16:12:30.395Z,9.07
2019-02-16T16:15:15.253Z,8.67
2019-02-16T16:18:08.811Z,8.80
2019-02-16T16:21:04.570Z,8.70
2019-02-16T16:23:54.328Z,8.07
2019-02-16T16:26:41.325Z,8.20
2019-02-16T16:29:32.105Z,8.53
2019-02-16T16:32:24.773Z,10.17
2019-02-16T16:35:27.179Z,9.20
2019-02-16T16:38:28.884Z,9.00
2019-02-16T16:41:12.539Z,10.07
2019-02-16T16:43:57.695Z,13.67
2019-02-16T16:46:44.538Z,11.70
2019-02-16T16:49:29.286Z,9.90
2019-02-16T16:52:20.106Z,8.20
2019-02-16T16:55:08.735Z,8.43
2019-02-16T16:57:56.194Z,10.73
2019-02-16T17:00:34.945Z,13.60
2019-02-16T17:03:26.382Z,14.17
2019-02-16T17:06:16.270Z,14.63
2019-02-16T17:09:05.678Z,14.83
2019-02-16T17:11:54.289Z,16.23
2019-02-16T17:14:44.933Z,16.97
2019-02-16T17:17:37.795Z,17.17
2019-02-16T17:20:33.827Z,13.50
2019-02-16T17:23:13.262Z,11.83
2019-02-16T17:26:12.490Z,14.10
2019-02-16T17:29:01.197Z,17.00
2019-02-16T17:31:49.742Z,17.93
2019-02-16T17:34:38.098Z,19.57
2019-02-16T17:37:26.485Z,15.07
2019-02-16T17:40:31.645Z,16.07
2019-02-16T17:43:13.986Z,15.23
2019-02-16T17:45:54.847Z,12.13
2019-02-16T17:48:47.559Z,11.23
2019-02-16T17:51:55.508Z,11.57
2019-02-16T17:54:44.441Z,13.23
2019-02-16T17:57:27.680Z,9.43
2019-02-16T18:00:26.642Z,9.23
2019-02-16T18:03:15.435Z,8.33
2019-02-16T18:06:04.146Z,10.00
2019-02-16T18:08:52.785Z,10.30
2019-02-16T18:11:41.533Z,10.70
2019-02-16T18:14:18.934Z,17.17
2019-02-16T18:17:20.986Z,13.77
2019-02-16T18:19:57.195Z,13.00
2019-02-16T18:22:39.330Z,13.70
2019-02-16T18:25:41.503Z,13.53
2019-02-16T18:28:30.160Z,11.80
2019-02-16T18:31:19.967Z,10.87
2019-02-16T18:34:10.194Z,9.73
2019-02-16T18:37:00.273Z,10.83
2019-02-16T18:39:53.052Z,8.73
2019-02-16T18:42:48.974Z,8.33
2019-02-16T18:45:37.210Z,7.17
2019-02-16T18:48:19.785Z,8.67
2019-02-16T18:51:00.893Z,9.13
2019-02-16T18:54:09.157Z,9.97
2019-02-16T18:57:06.807Z,8.70
2019-02-16T18:59:56.824Z,9.57
2019-02-16T19:02:45.587Z,7.60
2019-02-16T19:05:47.546Z,10.70
2019-02-16T19:08:52.928Z,11.33
2019-02-16T19:11:45.605Z,12.50
2019-02-16T19:14:33.990Z,10.67
2019-02-16T19:17:13.211Z,9.27
2019-02-16T19:20:01.977Z,9.50
2019-02-16T19:22:50.720Z,10.90
2019-02-16T19:25:52.646Z,11.73
2019-02-16T19:28:46.173Z,14.67
2019-02-16T19:31:34.951Z,12.97
2019-02-16T19:34:36.862Z,15.97
2019-02-16T19:37:15.910Z,17.13
2019-02-16T19:40:04.278Z,14.33
2019-02-16T19:42:53.002Z,15.93
2019-02-16T19:45:41.491Z,14.27
2019-02-16T19:48:24.527Z,14.03
2019-02-16T19:51:29.262Z,13.50
2019-02-16T19:54:16.685Z,14.20
2019-02-16T19:57:00.103Z,13.23
2019-02-16T19:59:49.972Z,12.87
2019-02-16T20:02:42.853Z,15.37
2019-02-16T20:05:33.675Z,12.67
2019-02-16T20:08:23.473Z,10.47
2019-02-16T20:11:22.195Z,12.87
2019-02-16T20:14:13.209Z,12.80
2019-02-16T20:16:57.047Z,10.70
2019-02-16T20:19:58.873Z,9.43
2019-02-16T20:22:47.534Z,12.43
2019-02-16T20:25:25.771Z,10.30
2019-02-16T20:28:08.165Z,10.60
2019-02-16T20:30:48.336Z,10.37
2019-02-16T20:33:41.239Z,10.97
2019-02-16T20:36:34.058Z,10.03
2019-02-16T20:39:25.117Z,10.07
2019-02-16T20:42:26.945Z,10.97
2019-02-16T20:45:04.165Z,10.57
2019-02-16T20:48:09.184Z,11.73
2019-02-16T20:50:58.969Z,9.50
2019-02-16T20:53:49.040Z,11.10
2019-02-16T20:56:36.180Z,11.67
2019-02-16T20:59:32.926Z,8.30
2019-02-16T21:02:22.308Z,9.43
2019-02-16T21:05:10.823Z,10.53
2019-02-16T21:08:00.878Z,11.53
2019-02-16T21:10:49.715Z,9.93
2019-02-16T21:13:26.657Z,11.00
2019-02-16T21:16:15.142Z,9.60
2019-02-16T21:19:11.030Z,10.60
2019-02-16T21:22:09.882Z,10.83
2019-02-16T21:24:46.238Z,11.73
2019-02-16T21:27:30.571Z,11.27
2019-02-16T21:30:12.742Z,15.87
2019-02-16T21:33:12.370Z,16.47
2019-02-16T21:36:01.311Z,12.57
2019-02-16T21:39:03.221Z,11.17
2019-02-16T21:41:54.908Z,10.73
2019-02-16T21:44:50.653Z,10.70
2019-02-16T21:47:38.550Z,12.97
2019-02-16T21:50:34.929Z,12.43
2019-02-16T21:53:21.436Z,12.83
2019-02-16T21:56:06.262Z,12.27
2019-02-16T21:58:49.357Z,21.83
2019-02-16T22:01:39.175Z,19.10
2019-02-16T22:04:30.613Z,14.13
2019-02-16T22:07:16.405Z,12.67
2019-02-16T22:10:21.573Z,12.53
2019-02-16T22:13:20.055Z,11.87
2019-02-16T22:15:51.017Z,13.03
2019-02-16T22:18:22.022Z,12.57
2019-02-16T22:20:52.911Z,14.03
2019-02-16T22:23:23.800Z,14.60
2019-02-16T22:25:54.726Z,13.53
2019-02-16T22:28:31.031Z,14.17
2019-02-16T22:30:59.126Z,12.83
2019-02-16T22:33:29.969Z,13.23
2019-02-16T22:36:00.803Z,13.87
2019-02-16T22:38:31.674Z,13.43
2019-02-16T22:41:02.478Z,15.27
2019-02-16T22:43:33.298Z,14.90
2019-02-16T22:46:04.079Z,11.37
2019-02-16T22:48:34.893Z,12.17
2019-02-16T22:51:06.511Z,11.83
2019-02-16T22:53:37.354Z,13.07
2019-02-16T22:56:08.518Z,12.30
2019-02-16T22:58:39.450Z,12.90
2019-02-16T23:01:10.249Z,12.47
2019-02-16T23:03:42.659Z,13.40
2019-02-16T23:06:13.967Z,14.20
2019-02-16T23:08:44.933Z,14.03
2019-02-16T23:11:15.782Z,15.53
2019-02-16T23:13:46.576Z,10.87
2019-02-16T23:16:17.570Z,13.17
2019-02-16T23:18:48.802Z,24.43
2019-02-16T23:21:19.602Z,16.43
2019-02-16T23:23:50.431Z,13.20
2019-02-16T23:26:21.328Z,13.13
2019-02-16T23:28:52.094Z,12.63
2019-02-16T23:31:23.192Z,13.07
2019-02-16T23:33:54.010Z,10.60
2019-02-16T23:36:24.931Z,14.47
2019-02-16T23:38:55.742Z,12.50
2019-02-16T23:41:27.022Z,14.77
2019-02-16T23:43:57.935Z,13.37
2019-02-16T23:46:28.740Z,12.73
2019-02-16T23:48:59.778Z,12.80
2019-02-16T23:51:30.565Z,11.07
2019-02-16T23:54:01.418Z,11.70
2019-02-16T23:56:32.258Z,12.53
2019-02-16T23:59:03.103Z,10.93
